Time;durP1;ratioP1;P1;durP2;ratioP2;P2;SDS_P1;SDS_P2;PMS_P1;PMS_P2;Temp;Humidity;BMP_temperature;BMP_pressure;BME280_temperature;BME280_humidity;BME280_pressure;Samples;Min_cycle;Max_cycle;Signal;HPM_P1;HPM_P2
2021/01/18 00:00:55;;;;;;;6.73;6.03;;;19.30;40.10;;;;;;4978680;28;20495;-71
2021/01/18 00:03:22;;;;;;;6.13;5.53;;;19.30;40.20;;;;;;4993997;28;20492;-70
2021/01/18 00:05:48;;;;;;;6.90;6.20;;;19.20;40.10;;;;;;4992117;28;20616;-71
2021/01/18 00:08:14;;;;;;;9.63;6.70;;;19.20;40.20;;;;;;4973495;28;20498;-70
2021/01/18 00:10:41;;;;;;;7.00;6.40;;;19.20;40.40;;;;;;4990306;28;20542;-71
2021/01/18 00:13:07;;;;;;;5.87;5.30;;;19.20;40.90;;;;;;4990845;28;20498;-71
2021/01/18 00:15:33;;;;;;;7.07;6.37;;;19.20;40.30;;;;;;4995583;28;20491;-70
2021/01/18 00:17:59;;;;;;;8.60;6.63;;;19.20;40.30;;;;;;4991034;28;20546;-70
2021/01/18 00:20:25;;;;;;;7.27;6.33;;;19.20;40.00;;;;;;4995219;28;20489;-71
2021/01/18 00:22:51;;;;;;;6.77;6.17;;;19.20;39.90;;;;;;4991543;28;20551;-71
2021/01/18 00:25:19;;;;;;;8.33;7.10;;;19.20;39.90;;;;;;4998717;28;20510;-70
2021/01/18 00:27:46;;;;;;;7.03;6.07;;;19.20;39.80;;;;;;4991776;28;20488;-70
2021/01/18 00:30:13;;;;;;;6.93;6.20;;;19.20;39.90;;;;;;4973501;28;20980;-71
2021/01/18 00:32:40;;;;;;;9.30;7.27;;;19.20;39.90;;;;;;4997912;28;20484;-71
2021/01/18 00:35:07;;;;;;;9.90;7.20;;;19.30;39.90;;;;;;4995679;28;20484;-71
2021/01/18 00:37:39;;;;;;;10.30;6.40;;;19.20;39.90;;;;;;4991742;28;20493;-70
2021/01/18 00:40:06;;;;;;;7.97;6.67;;;19.20;40.00;;;;;;4982850;28;20488;-71
2021/01/18 00:42:32;;;;;;;6.27;5.70;;;19.20;40.10;;;;;;4994545;28;20493;-71
2021/01/18 00:44:59;;;;;;;11.60;7.90;;;19.20;40.30;;;;;;4991988;28;21573;-71
2021/01/18 00:47:26;;;;;;;8.50;7.00;;;19.20;40.70;;;;;;4992289;28;21339;-71
2021/01/18 00:49:52;;;;;;;7.20;6.50;;;19.20;40.50;;;;;;4991934;28;20867;-70
2021/01/18 00:52:18;;;;;;;7.07;6.47;;;19.20;40.30;;;;;;4982904;28;20818;-70
2021/01/18 00:54:44;;;;;;;6.70;6.10;;;19.20;40.30;;;;;;4989509;28;20507;-71
2021/01/18 00:57:10;;;;;;;7.83;6.73;;;19.20;40.30;;;;;;4998413;28;20492;-70
2021/01/18 00:59:36;;;;;;;10.80;7.70;;;19.20;40.10;;;;;;4996223;28;21505;-70
2021/01/18 01:02:04;;;;;;;12.30;7.50;;;19.20;40.20;;;;;;4983189;28;21005;-71
2021/01/18 01:04:30;;;;;;;8.10;6.83;;;19.20;40.20;;;;;;4990234;28;20640;-71
2021/01/18 01:06:56;;;;;;;7.30;6.50;;;19.20;40.20;;;;;;4991378;28;20499;-70
2021/01/18 01:09:22;;;;;;;7.77;6.60;;;19.20;40.20;;;;;;4989085;28;20492;-71
2021/01/18 01:11:48;;;;;;;7.53;6.60;;;19.20;40.20;;;;;;4960675;28;20489;-70
2021/01/18 01:14:14;;;;;;;7.77;6.60;;;19.10;40.30;;;;;;4987957;28;20485;-71
2021/01/18 01:16:42;;;;;;;8.73;6.87;;;19.10;40.10;;;;;;4991914;28;20530;-71
2021/01/18 01:19:10;;;;;;;8.97;6.40;;;19.10;39.90;;;;;;4997004;28;20515;-71
2021/01/18 01:21:36;;;;;;;9.20;7.17;;;19.10;39.90;;;;;;4993228;28;20481;-71
2021/01/18 01:24:02;;;;;;;8.57;6.77;;;19.10;39.80;;;;;;4994350;28;20503;-71
2021/01/18 01:26:28;;;;;;;8.57;6.90;;;19.10;39.80;;;;;;4995334;28;20499;-71
2021/01/18 01:28:54;;;;;;;8.00;6.63;;;19.20;39.90;;;;;;4992287;28;20588;-71
2021/01/18 01:31:21;;;;;;;8.00;6.70;;;19.20;40.00;;;;;;4991909;28;20480;-71
2021/01/18 01:33:47;;;;;;;7.20;6.20;;;19.20;39.90;;;;;;4992058;28;20488;-71
2021/01/18 01:36:14;;;;;;;7.80;6.83;;;19.20;40.00;;;;;;4993093;28;20874;-71
2021/01/18 01:38:40;;;;;;;10.53;6.60;;;19.20;40.20;;;;;;4979399;28;20489;-71
2021/01/18 01:41:06;;;;;;;8.97;7.37;;;19.20;40.40;;;;;;4991628;28;20626;-71
2021/01/18 01:43:32;;;;;;;10.27;7.90;;;19.20;40.20;;;;;;4987577;28;20553;-71
2021/01/18 01:45:58;;;;;;;11.37;7.97;;;19.20;41.10;;;;;;4999278;28;20481;-71
2021/01/18 01:48:26;;;;;;;8.27;7.40;;;19.20;40.20;;;;;;4991344;28;20507;-71
2021/01/18 01:50:52;;;;;;;9.40;7.60;;;19.10;40.10;;;;;;4988971;28;20996;-71
2021/01/18 01:53:20;;;;;;;12.80;7.90;;;19.10;40.20;;;;;;4990149;28;21052;-71
2021/01/18 01:55:46;;;;;;;8.40;7.03;;;19.10;40.20;;;;;;4991944;28;20635;-70
2021/01/18 01:58:13;;;;;;;8.77;6.77;;;19.10;39.80;;;;;;4982759;28;22169;-71
2021/01/18 02:00:40;;;;;;;8.93;7.03;;;19.10;39.80;;;;;;4984398;28;20523;-71
2021/01/18 02:03:06;;;;;;;9.23;7.50;;;19.10;39.90;;;;;;5003416;28;20487;-71
2021/01/18 02:05:32;;;;;;;12.50;7.57;;;19.10;40.10;;;;;;4978284;28;20485;-71
2021/01/18 02:07:59;;;;;;;12.17;7.70;;;19.20;40.30;;;;;;4989869;28;20540;-71
2021/01/18 02:10:27;;;;;;;7.50;6.80;;;19.20;40.20;;;;;;4989875;28;20513;-70
2021/01/18 02:12:53;;;;;;;11.77;8.67;;;19.20;39.90;;;;;;4979834;28;20926;-70
2021/01/18 02:15:38;;;;;;;8.47;6.70;;;19.20;40.00;;;;;;4992416;28;21036;-71
2021/01/18 02:18:22;;;;;;;9.67;7.30;;;19.20;39.80;;;;;;4994251;28;20528;-71
2021/01/18 02:21:27;;;;;;;10.10;7.90;;;19.20;39.90;;;;;;4982802;28;20492;-71
2021/01/18 02:24:20;;;;;;;9.40;8.07;;;19.10;40.00;;;;;;4999833;28;21616;-72
2021/01/18 02:26:55;;;;;;;13.50;8.13;;;19.10;40.10;;;;;;4952628;28;20490;-70
2021/01/18 02:29:25;;;;;;;9.70;7.40;;;19.10;40.20;;;;;;4991117;28;20866;-71
2021/01/18 02:32:21;;;;;;;8.47;7.17;;;19.10;40.10;;;;;;4992867;28;20495;-71
2021/01/18 02:34:59;;;;;;;9.23;7.07;;;19.10;40.20;;;;;;4987610;28;21511;-70
2021/01/18 02:37:55;;;;;;;8.50;7.50;;;19.10;40.30;;;;;;5017105;28;20492;-72
2021/01/18 02:40:24;;;;;;;9.40;6.83;;;19.10;39.80;;;;;;5019555;28;20472;-71
2021/01/18 02:42:51;;;;;;;8.90;7.83;;;19.10;39.80;;;;;;5000507;28;22509;-72
2021/01/18 02:45:17;;;;;;;13.07;8.27;;;19.10;40.00;;;;;;4984928;28;20569;-71
2021/01/18 02:47:44;;;;;;;11.47;8.03;;;19.10;39.80;;;;;;4990301;28;20481;-71
2021/01/18 02:50:10;;;;;;;8.83;7.07;;;19.10;39.80;;;;;;4992038;28;20489;-71
2021/01/18 02:52:41;;;;;;;10.37;7.63;;;19.20;39.90;;;;;;4998663;28;20576;-71
2021/01/18 02:55:08;;;;;;;10.20;7.37;;;19.20;39.90;;;;;;4994145;28;20924;-70
2021/01/18 02:57:35;;;;;;;8.43;7.10;;;19.20;39.90;;;;;;4989749;28;20568;-71
2021/01/18 03:00:03;;;;;;;9.97;7.53;;;19.20;39.90;;;;;;4993479;28;20484;-71
2021/01/18 03:02:35;;;;;;;12.50;7.37;;;19.20;40.00;;;;;;4983617;28;20570;-71
2021/01/18 03:05:16;;;;;;;10.27;7.20;;;19.10;40.10;;;;;;4991012;28;20479;-71
2021/01/18 03:07:50;;;;;;;10.93;8.37;;;19.10;40.20;;;;;;4973688;28;20480;-73
2021/01/18 03:10:26;;;;;;;11.30;7.63;;;19.10;40.20;;;;;;4987669;28;20501;-72
2021/01/18 03:12:56;;;;;;;9.13;6.60;;;19.10;40.10;;;;;;4987906;28;20685;-71
2021/01/18 03:15:22;;;;;;;9.50;8.00;;;19.10;40.10;;;;;;4989115;28;21339;-72
2021/01/18 03:17:48;;;;;;;11.27;6.80;;;19.10;40.20;;;;;;4989367;28;20988;-71
2021/01/18 03:20:14;;;;;;;9.27;7.43;;;19.10;40.20;;;;;;4994829;28;21318;-71
2021/01/18 03:22:41;;;;;;;7.57;6.80;;;19.10;40.10;;;;;;4966508;28;20510;-71
2021/01/18 03:25:09;;;;;;;10.70;8.10;;;19.10;40.20;;;;;;4970459;28;20505;-70
2021/01/18 03:27:48;;;;;;;12.00;7.70;;;19.10;40.10;;;;;;4961339;28;20497;-71
2021/01/18 03:30:15;;;;;;;10.70;7.27;;;19.10;40.10;;;;;;4964850;28;20481;-71
2021/01/18 03:32:42;;;;;;;13.07;8.20;;;19.10;40.30;;;;;;4981803;28;20475;-70
2021/01/18 03:35:09;;;;;;;10.23;8.00;;;19.10;40.20;;;;;;4993716;28;20490;-71
2021/01/18 03:37:35;;;;;;;11.27;7.70;;;19.10;39.90;;;;;;4992540;28;20484;-71
2021/01/18 03:40:01;;;;;;;9.70;7.77;;;19.10;39.90;;;;;;4997966;28;20487;-72
2021/01/18 03:42:28;;;;;;;9.30;7.60;;;19.10;39.90;;;;;;4997377;28;20991;-70
2021/01/18 03:44:54;;;;;;;10.10;7.17;;;19.10;39.80;;;;;;4993656;28;20481;-71
2021/01/18 03:47:20;;;;;;;8.60;7.53;;;19.10;39.80;;;;;;4996101;28;20484;-70
2021/01/18 03:49:48;;;;;;;9.73;7.03;;;19.10;40.00;;;;;;4992077;28;20545;-71
2021/01/18 03:52:14;;;;;;;10.20;7.27;;;19.10;39.80;;;;;;4995511;28;20860;-71
2021/01/18 03:54:40;;;;;;;12.00;7.40;;;19.10;39.90;;;;;;4992818;28;20968;-71
2021/01/18 03:57:06;;;;;;;11.10;8.67;;;19.20;40.10;;;;;;4999524;28;20491;-72
2021/01/18 03:59:33;;;;;;;12.37;6.90;;;19.10;40.00;;;;;;4993309;28;20546;-71
2021/01/18 04:01:59;;;;;;;10.10;7.37;;;19.10;40.00;;;;;;4993294;28;20544;-70
2021/01/18 04:04:25;;;;;;;6.73;6.10;;;19.10;40.80;;;;;;4995953;28;20504;-71
2021/01/18 04:06:51;;;;;;;12.00;7.17;;;19.10;39.80;;;;;;4990771;28;21174;-71
2021/01/18 04:09:17;;;;;;;9.13;7.20;;;19.10;39.60;;;;;;4995557;28;21230;-71
2021/01/18 04:11:44;;;;;;;7.50;6.70;;;19.10;39.60;;;;;;4994261;28;20917;-71
2021/01/18 04:14:10;;;;;;;8.13;6.50;;;19.10;39.50;;;;;;4991205;28;21268;-71
2021/01/18 04:16:40;;;;;;;9.60;6.37;;;19.20;39.40;;;;;;4993063;28;20488;-71
2021/01/18 04:19:06;;;;;;;8.80;6.80;;;19.30;39.30;;;;;;4993412;28;20488;-69
2021/01/18 04:21:38;;;;;;;8.00;6.47;;;19.30;39.50;;;;;;4993486;28;20528;-70
2021/01/18 04:24:05;;;;;;;8.20;6.37;;;19.40;38.70;;;;;;4991998;28;20489;-71
2021/01/18 04:26:31;;;;;;;13.97;7.23;;;19.40;38.70;;;;;;4994991;28;20492;-71
2021/01/18 04:28:58;;;;;;;11.53;7.20;;;19.50;38.70;;;;;;4994930;28;20492;-71
2021/01/18 04:31:24;;;;;;;9.33;6.53;;;19.50;39.00;;;;;;4994344;28;20485;-71
2021/01/18 04:33:51;;;;;;;10.57;5.70;;;19.50;38.80;;;;;;4983229;28;21011;-71
2021/01/18 04:36:17;;;;;;;10.37;6.87;;;19.50;38.80;;;;;;4989682;28;20493;-71
2021/01/18 04:38:43;;;;;;;7.90;5.87;;;19.50;39.10;;;;;;4992146;28;20903;-71
2021/01/18 04:41:09;;;;;;;8.53;5.63;;;19.50;38.80;;;;;;4985361;28;21068;-71
2021/01/18 04:43:36;;;;;;;8.93;6.40;;;19.40;38.90;;;;;;4990853;28;20500;-71
2021/01/18 04:46:03;;;;;;;8.60;5.90;;;19.40;38.90;;;;;;4995456;28;20481;-70
2021/01/18 04:48:29;;;;;;;10.70;6.87;;;19.30;39.10;;;;;;4992761;28;20492;-71
2021/01/18 04:50:56;;;;;;;6.93;5.60;;;19.30;39.30;;;;;;4998401;28;21691;-71
2021/01/18 04:53:22;;;;;;;7.00;5.80;;;19.20;39.50;;;;;;4989790;28;20488;-71
2021/01/18 04:56:13;;;;;;;6.43;5.83;;;19.20;39.50;;;;;;4994878;28;20492;-71
2021/01/18 04:58:39;;;;;;;8.20;6.37;;;19.20;39.60;;;;;;4996488;28;21047;-70
2021/01/18 05:01:05;;;;;;;5.33;4.83;;;19.20;39.60;;;;;;4992314;28;20566;-71
2021/01/18 05:03:34;;;;;;;6.60;5.37;;;19.20;39.40;;;;;;4996925;28;20605;-70
2021/01/18 05:06:39;;;;;;;5.17;4.77;;;19.20;39.50;;;;;;4996092;28;21024;-71
2021/01/18 05:09:29;;;;;;;6.53;5.47;;;19.20;39.20;;;;;;4990906;28;20485;-70
2021/01/18 05:11:56;;;;;;;6.43;5.50;;;19.20;39.90;;;;;;4993811;28;20509;-70
2021/01/18 05:14:22;;;;;;;6.00;4.83;;;19.20;39.20;;;;;;4993679;28;20906;-71
2021/01/18 05:16:53;;;;;;;6.03;5.17;;;19.20;39.30;;;;;;4995562;28;20510;-71
2021/01/18 05:19:20;;;;;;;5.53;5.03;;;19.20;39.30;;;;;;4992970;28;20488;-71
2021/01/18 05:21:47;;;;;;;8.10;5.00;;;19.20;39.20;;;;;;4990815;28;20542;-70
2021/01/18 05:24:14;;;;;;;6.17;5.17;;;19.20;39.20;;;;;;4983897;28;20484;-71
2021/01/18 05:26:40;;;;;;;5.10;4.60;;;19.20;39.40;;;;;;4986576;28;20489;-71
2021/01/18 05:29:07;;;;;;;4.90;4.40;;;19.20;39.30;;;;;;4989712;28;20511;-70
2021/01/18 05:31:34;;;;;;;5.80;4.70;;;19.20;39.30;;;;;;5002782;28;20556;-71
2021/01/18 05:34:01;;;;;;;4.60;4.20;;;19.20;39.00;;;;;;4994630;28;20487;-71
2021/01/18 05:36:37;;;;;;;5.20;4.70;;;19.30;39.00;;;;;;4991551;28;20523;-69
2021/01/18 05:39:15;;;;;;;5.50;5.10;;;19.30;38.90;;;;;;4989084;28;20489;-70
2021/01/18 05:41:41;;;;;;;4.50;4.10;;;19.30;39.00;;;;;;4991315;28;20488;-71
2021/01/18 05:44:07;;;;;;;4.63;4.23;;;19.30;39.10;;;;;;4992099;28;20480;-71
2021/01/18 05:46:34;;;;;;;5.13;4.33;;;19.30;38.80;;;;;;4991100;28;20484;-70
2021/01/18 05:49:08;;;;;;;4.57;4.27;;;19.30;38.90;;;;;;4992987;28;20489;-70
2021/01/18 05:51:35;;;;;;;4.20;3.90;;;19.30;38.90;;;;;;4982162;28;20475;-70
2021/01/18 05:54:01;;;;;;;5.20;4.80;;;19.30;38.30;;;;;;4989835;28;20481;-70
2021/01/18 05:56:37;;;;;;;4.47;3.60;;;19.30;38.80;;;;;;4994431;28;21636;-71
2021/01/18 05:59:10;;;;;;;3.93;3.63;;;19.30;38.80;;;;;;4992957;28;20527;-70
2021/01/18 06:01:37;;;;;;;3.70;3.43;;;19.30;38.70;;;;;;4993379;28;22441;-71
2021/01/18 06:04:07;;;;;;;4.47;4.07;;;19.30;38.70;;;;;;4993401;28;20579;-70
2021/01/18 06:06:35;;;;;;;5.23;4.37;;;19.30;38.70;;;;;;4991582;28;20505;-71
2021/01/18 06:09:01;;;;;;;4.00;3.70;;;19.30;38.40;;;;;;4998258;28;21514;-71
2021/01/18 06:11:28;;;;;;;4.50;4.10;;;19.30;38.70;;;;;;4981933;28;20870;-70
2021/01/18 06:13:59;;;;;;;5.17;4.10;;;19.30;38.80;;;;;;4991636;28;20542;-69
2021/01/18 06:16:25;;;;;;;4.57;4.10;;;19.30;39.30;;;;;;4982579;28;20532;-70
2021/01/18 06:19:02;;;;;;;3.20;3.00;;;19.30;39.30;;;;;;4981414;28;20484;-71
2021/01/18 06:21:35;;;;;;;5.23;4.27;;;19.30;39.10;;;;;;4983680;28;20542;-70
2021/01/18 06:24:18;;;;;;;3.83;3.57;;;19.30;39.00;;;;;;4980536;28;20806;-71
2021/01/18 06:26:45;;;;;;;4.10;3.80;;;19.40;38.90;;;;;;4994628;28;20531;-71
2021/01/18 06:29:11;;;;;;;3.87;3.50;;;19.50;38.70;;;;;;5008495;28;20468;-71
2021/01/18 06:31:45;;;;;;;3.33;3.10;;;19.50;38.50;;;;;;4995342;28;20496;-72
2021/01/18 06:34:11;;;;;;;3.90;3.70;;;19.50;38.40;;;;;;4995623;28;20484;-71
2021/01/18 06:36:37;;;;;;;3.50;2.83;;;19.50;38.40;;;;;;4991142;28;20485;-71
2021/01/18 06:39:05;;;;;;;3.67;3.07;;;19.50;38.60;;;;;;4989867;28;20488;-71
2021/01/18 06:41:32;;;;;;;3.37;3.17;;;19.50;38.70;;;;;;4990233;28;21085;-71
2021/01/18 06:43:59;;;;;;;3.00;2.90;;;19.50;38.70;;;;;;4988025;28;20493;-71
2021/01/18 06:46:26;;;;;;;2.77;2.57;;;19.50;38.70;;;;;;4980499;28;20495;-71
2021/01/18 06:48:53;;;;;;;5.90;3.40;;;19.50;39.00;;;;;;4986852;28;21013;-71
2021/01/18 06:51:20;;;;;;;2.80;2.60;;;19.50;38.90;;;;;;4989168;28;20489;-71
2021/01/18 06:53:47;;;;;;;2.70;2.60;;;19.60;39.10;;;;;;4980851;28;20860;-71
2021/01/18 06:56:42;;;;;;;3.73;2.77;;;19.60;38.90;;;;;;4961389;28;20566;-70
2021/01/18 06:59:19;;;;;;;3.80;2.87;;;19.60;39.00;;;;;;4986267;28;20476;-71
2021/01/18 07:01:46;;;;;;;2.63;2.43;;;19.60;38.80;;;;;;4969319;28;20480;-71
2021/01/18 07:04:15;;;;;;;2.13;1.90;;;19.60;38.90;;;;;;4975217;28;20924;-70
2021/01/18 07:06:41;;;;;;;2.67;2.47;;;19.60;39.00;;;;;;4983498;28;20492;-71
2021/01/18 07:09:08;;;;;;;2.13;2.03;;;19.60;39.20;;;;;;4989529;28;20873;-71
2021/01/18 07:11:34;;;;;;;2.80;2.60;;;19.60;39.20;;;;;;4992281;28;20496;-71
2021/01/18 07:14:02;;;;;;;2.80;2.60;;;19.50;39.20;;;;;;4982270;28;20486;-71
2021/01/18 07:16:29;;;;;;;2.50;2.30;;;19.50;39.30;;;;;;4991032;28;20488;-70
2021/01/18 07:18:56;;;;;;;2.70;2.50;;;19.50;39.20;;;;;;4989733;28;20526;-71
2021/01/18 07:21:26;;;;;;;2.50;2.40;;;19.50;39.40;;;;;;4991024;28;20596;-71
2021/01/18 07:23:54;;;;;;;2.10;2.00;;;19.50;39.40;;;;;;4982807;28;20496;-71
2021/01/18 07:26:44;;;;;;;2.53;2.30;;;19.50;39.40;;;;;;4990090;28;21065;-71
2021/01/18 07:29:10;;;;;;;3.33;2.10;;;19.50;39.60;;;;;;4979728;28;20485;-71
2021/01/18 07:31:42;;;;;;;1.83;1.73;;;19.50;39.70;;;;;;4990854;28;20493;-70
2021/01/18 07:34:08;;;;;;;2.17;2.07;;;19.50;39.70;;;;;;4982795;28;20527;-71
2021/01/18 07:36:34;;;;;;;1.90;1.80;;;19.50;39.70;;;;;;4990247;28;20501;-70
2021/01/18 07:39:00;;;;;;;3.17;2.10;;;19.50;39.80;;;;;;4992140;28;21600;-71
2021/01/18 07:41:36;;;;;;;2.20;2.10;;;19.50;39.80;;;;;;4992539;28;20504;-70
2021/01/18 07:44:02;;;;;;;2.50;2.00;;;19.50;39.70;;;;;;4981309;28;20492;-71
2021/01/18 07:46:39;;;;;;;2.00;1.90;;;19.50;39.80;;;;;;4980949;28;20623;-70
2021/01/18 07:49:44;;;;;;;1.83;1.73;;;19.50;40.00;;;;;;4991193;28;20539;-71
2021/01/18 07:52:38;;;;;;;2.03;1.93;;;19.40;39.90;;;;;;4986172;28;20484;-71
2021/01/18 07:55:11;;;;;;;1.70;1.60;;;19.40;40.00;;;;;;4989093;28;20495;-71
2021/01/18 07:57:38;;;;;;;2.17;2.07;;;19.30;40.70;;;;;;4987550;28;20854;-71
2021/01/18 08:00:23;;;;;;;2.93;1.70;;;19.30;40.10;;;;;;4990117;28;20874;-70
2021/01/18 08:02:51;;;;;;;2.53;1.87;;;19.30;40.00;;;;;;4982883;28;20539;-71
2021/01/18 08:05:24;;;;;;;2.90;1.87;;;19.40;40.10;;;;;;4988027;28;21210;-70
2021/01/18 08:08:01;;;;;;;2.23;2.03;;;19.40;40.10;;;;;;4988643;28;20480;-69
2021/01/18 08:10:51;;;;;;;1.97;1.83;;;19.40;40.00;;;;;;4977466;28;20493;-70
2021/01/18 08:13:46;;;;;;;1.33;1.23;;;19.40;40.00;;;;;;4971480;28;20491;-71
2021/01/18 08:16:20;;;;;;;1.67;1.50;;;19.40;40.00;;;;;;4985277;28;21005;-70
2021/01/18 08:19:01;;;;;;;2.03;1.93;;;19.40;40.00;;;;;;4978691;28;20480;-71
2021/01/18 08:21:45;;;;;;;2.07;1.97;;;19.50;40.10;;;;;;4991646;28;21001;-70
2021/01/18 08:24:13;;;;;;;1.80;1.70;;;19.50;40.00;;;;;;4989945;28;21107;-71
2021/01/18 08:27:06;;;;;;;1.83;1.73;;;19.40;40.00;;;;;;4988078;28;20488;-71
2021/01/18 08:29:39;;;;;;;2.40;2.20;;;19.50;40.20;;;;;;4953697;28;20493;-70
2021/01/18 08:32:37;;;;;;;1.83;1.73;;;19.50;40.20;;;;;;4991958;28;20537;-71
2021/01/18 08:35:06;;;;;;;1.97;1.87;;;19.40;40.10;;;;;;4993367;28;20490;-71
2021/01/18 08:37:33;;;;;;;2.03;1.90;;;19.50;40.30;;;;;;4988222;28;20759;-71
2021/01/18 08:40:00;;;;;;;1.70;1.60;;;19.50;40.40;;;;;;4992970;28;20864;-71
2021/01/18 08:42:27;;;;;;;1.77;1.60;;;19.50;40.20;;;;;;4993554;28;20542;-71
2021/01/18 08:44:57;;;;;;;1.60;1.60;;;19.50;40.20;;;;;;4981798;28;20487;-71
2021/01/18 08:47:42;;;;;;;3.73;1.70;;;19.50;40.30;;;;;;4988108;28;20492;-71
2021/01/18 08:50:19;;;;;;;1.97;1.77;;;19.50;40.20;;;;;;4991768;28;21058;-70
2021/01/18 08:52:46;;;;;;;1.50;1.50;;;19.40;40.30;;;;;;4994921;28;20480;-71
2021/01/18 08:55:42;;;;;;;1.73;1.60;;;19.50;40.30;;;;;;4993782;28;20495;-71
2021/01/18 08:58:08;;;;;;;2.37;1.97;;;19.40;40.30;;;;;;4991665;28;21066;-71
2021/01/18 09:00:38;;;;;;;2.83;2.10;;;19.50;40.30;;;;;;4990124;28;20499;-72
2021/01/18 09:03:04;;;;;;;2.13;2.00;;;19.40;40.30;;;;;;4992214;28;20484;-70
2021/01/18 09:05:31;;;;;;;1.70;1.57;;;19.40;40.30;;;;;;4988550;28;20646;-71
2021/01/18 09:07:58;;;;;;;1.87;1.57;;;19.50;40.30;;;;;;4993944;28;21039;-71
2021/01/18 09:10:24;;;;;;;2.20;1.77;;;19.50;40.30;;;;;;4991808;28;21291;-71
2021/01/18 09:12:50;;;;;;;2.17;2.00;;;19.50;40.30;;;;;;4992928;28;20481;-71
2021/01/18 09:15:18;;;;;;;6.40;1.20;;;19.40;40.30;;;;;;4993384;28;21146;-71
2021/01/18 09:17:44;;;;;;;1.70;1.60;;;19.50;40.40;;;;;;4979922;28;20489;-72
2021/01/18 09:20:11;;;;;;;2.20;2.00;;;19.50;40.30;;;;;;4989232;28;20481;-71
2021/01/18 09:22:39;;;;;;;1.57;1.47;;;19.60;40.30;;;;;;4991907;28;20486;-71
2021/01/18 09:25:05;;;;;;;7.00;1.90;;;19.60;40.30;;;;;;4988601;28;20538;-72
2021/01/18 09:27:32;;;;;;;1.67;1.57;;;19.60;40.20;;;;;;4987771;28;20495;-71
2021/01/18 09:29:59;;;;;;;1.80;1.33;;;19.60;40.10;;;;;;4990576;28;20480;-72
2021/01/18 09:32:25;;;;;;;3.27;1.60;;;19.70;40.10;;;;;;4993457;28;20485;-72
2021/01/18 09:35:04;;;;;;;4.17;1.70;;;19.70;40.00;;;;;;4991126;28;20489;-72
2021/01/18 09:37:30;;;;;;;2.10;1.40;;;19.80;39.90;;;;;;4990789;28;20492;-71
2021/01/18 09:39:57;;;;;;;1.20;1.20;;;19.80;39.80;;;;;;4992187;28;21139;-71
2021/01/18 09:42:24;;;;;;;1.67;1.57;;;19.80;39.90;;;;;;4990443;28;20574;-71
2021/01/18 09:44:50;;;;;;;1.43;1.33;;;19.80;39.90;;;;;;4991658;28;20581;-71
2021/01/18 09:47:16;;;;;;;3.00;2.00;;;19.80;40.00;;;;;;4989205;28;21507;-71
2021/01/18 09:49:42;;;;;;;5.93;2.30;;;19.80;40.10;;;;;;4997146;28;20493;-70
2021/01/18 09:52:08;;;;;;;1.63;1.53;;;19.70;40.10;;;;;;4992961;28;20492;-71
2021/01/18 09:54:38;;;;;;;1.80;1.70;;;19.70;40.10;;;;;;5003325;28;20494;-71
2021/01/18 09:57:09;;;;;;;3.67;1.80;;;19.70;40.20;;;;;;4999440;28;20531;-71
2021/01/18 09:59:37;;;;;;;3.27;2.10;;;19.70;40.20;;;;;;4994037;28;21017;-71
2021/01/18 10:02:03;;;;;;;6.20;1.87;;;19.70;40.20;;;;;;4986430;28;20508;-70
2021/01/18 10:04:33;;;;;;;2.33;2.07;;;19.70;41.10;;;;;;4990992;28;20497;-71
2021/01/18 10:07:02;;;;;;;1.60;1.47;;;19.70;40.20;;;;;;4991306;28;20493;-71
2021/01/18 10:09:28;;;;;;;2.50;2.20;;;19.70;40.30;;;;;;4992101;28;20491;-70
2021/01/18 10:11:56;;;;;;;2.10;2.00;;;19.70;40.30;;;;;;4978629;28;20531;-70
2021/01/18 10:14:24;;;;;;;2.20;2.00;;;19.70;40.30;;;;;;4990350;28;20935;-70
2021/01/18 10:16:57;;;;;;;2.37;2.17;;;19.70;40.30;;;;;;4986313;28;20493;-70
2021/01/18 10:19:24;;;;;;;2.93;1.87;;;19.80;40.40;;;;;;4972336;28;20500;-70
2021/01/18 10:21:50;;;;;;;2.30;2.20;;;19.80;40.30;;;;;;5003589;28;20489;-71
2021/01/18 10:24:24;;;;;;;1.70;1.50;;;19.80;40.30;;;;;;4991907;28;20484;-69
2021/01/18 10:26:50;;;;;;;1.87;1.77;;;19.70;40.40;;;;;;4986862;28;20910;-70
2021/01/18 10:29:21;;;;;;;2.20;2.10;;;19.70;40.50;;;;;;4989733;28;20483;-70
2021/01/18 10:31:51;;;;;;;3.13;2.33;;;19.70;40.40;;;;;;4976692;28;21149;-70
2021/01/18 10:34:24;;;;;;;3.17;2.67;;;19.70;40.50;;;;;;4965736;28;20488;-73
2021/01/18 10:36:51;;;;;;;1.90;1.80;;;19.70;40.60;;;;;;4984613;28;20487;-70
2021/01/18 10:39:27;;;;;;;2.87;2.63;;;19.60;40.60;;;;;;4993577;28;20497;-70
2021/01/18 10:41:54;;;;;;;5.53;3.03;;;19.70;40.60;;;;;;4990350;28;21266;-71
2021/01/18 10:44:21;;;;;;;3.67;2.67;;;19.70;40.50;;;;;;4988840;28;20490;-70
2021/01/18 10:46:50;;;;;;;2.33;2.23;;;19.70;40.60;;;;;;4987949;28;20586;-71
2021/01/18 10:49:23;;;;;;;2.67;2.53;;;19.70;40.60;;;;;;4976549;28;20492;-70
2021/01/18 10:52:04;;;;;;;1.90;1.80;;;19.60;40.50;;;;;;4991525;28;21654;-71
2021/01/18 10:54:30;;;;;;;2.43;2.33;;;19.70;40.60;;;;;;4988930;28;20499;-71
2021/01/18 10:56:57;;;;;;;1.93;1.83;;;19.70;40.50;;;;;;4984593;28;20493;-70
2021/01/18 10:59:23;;;;;;;2.90;2.70;;;19.70;40.60;;;;;;4988306;28;20510;-70
2021/01/18 11:02:04;;;;;;;2.27;2.10;;;19.70;40.60;;;;;;4990806;28;20519;-71
2021/01/18 11:04:30;;;;;;;2.63;2.43;;;19.60;40.50;;;;;;4989592;28;20492;-71
2021/01/18 11:06:57;;;;;;;2.73;2.33;;;19.60;40.70;;;;;;4976385;28;21009;-70
2021/01/18 11:09:31;;;;;;;1.97;1.87;;;19.70;40.80;;;;;;4989045;28;21075;-71
2021/01/18 11:11:58;;;;;;;2.17;1.97;;;19.70;40.80;;;;;;4978008;28;20559;-70
2021/01/18 11:14:24;;;;;;;2.30;2.20;;;19.70;40.80;;;;;;4990646;28;20501;-71
2021/01/18 11:17:00;;;;;;;2.70;2.50;;;19.70;40.80;;;;;;4986501;28;20901;-71
2021/01/18 11:19:27;;;;;;;3.40;3.10;;;19.70;40.80;;;;;;4976621;28;21141;-71
2021/01/18 11:21:53;;;;;;;2.17;2.00;;;19.70;40.70;;;;;;4988151;28;20567;-71
2021/01/18 11:24:19;;;;;;;2.30;1.97;;;19.70;40.80;;;;;;4986577;28;20486;-71
2021/01/18 11:26:48;;;;;;;2.27;2.17;;;19.70;40.80;;;;;;4989627;28;21521;-71
2021/01/18 11:29:14;;;;;;;6.70;3.10;;;19.60;40.80;;;;;;4986273;28;20555;-71
2021/01/18 11:31:40;;;;;;;2.90;2.70;;;19.60;40.80;;;;;;4988534;28;20535;-71
2021/01/18 11:34:06;;;;;;;2.60;2.40;;;19.60;40.80;;;;;;4988513;28;20483;-71
2021/01/18 11:36:33;;;;;;;3.00;2.33;;;19.60;40.80;;;;;;4989407;28;20523;-70
2021/01/18 11:39:00;;;;;;;3.47;2.27;;;19.60;40.80;;;;;;4992054;28;20508;-70
2021/01/18 11:41:26;;;;;;;2.80;2.10;;;19.60;40.80;;;;;;4985587;28;20489;-71
2021/01/18 11:43:52;;;;;;;2.63;2.20;;;19.60;40.80;;;;;;4986952;28;20473;-71
2021/01/18 11:46:18;;;;;;;2.90;2.37;;;19.60;40.90;;;;;;4985886;28;20595;-70
2021/01/18 11:48:45;;;;;;;3.67;2.50;;;19.60;40.80;;;;;;4987619;28;20484;-70
2021/01/18 11:51:11;;;;;;;2.90;2.50;;;19.60;40.90;;;;;;4993691;28;21047;-70
2021/01/18 11:53:38;;;;;;;2.23;2.03;;;19.60;41.10;;;;;;4989247;28;20531;-71
2021/01/18 11:56:04;;;;;;;3.80;2.67;;;19.60;41.00;;;;;;4989635;28;20481;-70
2021/01/18 11:58:30;;;;;;;2.00;1.80;;;19.60;41.00;;;;;;4995696;28;20488;-71
2021/01/18 12:00:57;;;;;;;2.43;2.30;;;19.60;41.10;;;;;;4993241;28;20560;-71
2021/01/18 12:03:24;;;;;;;1.80;1.70;;;19.60;41.10;;;;;;4990463;28;21015;-70
2021/01/18 12:05:50;;;;;;;8.63;3.00;;;19.60;41.10;;;;;;4990981;28;21028;-71
2021/01/18 12:08:17;;;;;;;3.23;2.20;;;19.60;41.10;;;;;;4990517;28;20501;-70
2021/01/18 12:10:44;;;;;;;2.53;2.40;;;19.60;41.20;;;;;;4991183;28;20480;-71
2021/01/18 12:13:10;;;;;;;2.10;2.00;;;19.60;41.20;;;;;;4990951;28;20542;-71
2021/01/18 12:15:37;;;;;;;4.47;2.87;;;19.60;41.40;;;;;;4988890;28;20485;-71
2021/01/18 12:18:03;;;;;;;3.63;2.60;;;19.60;41.40;;;;;;4989231;28;20685;-71
2021/01/18 12:20:30;;;;;;;3.40;2.17;;;19.60;41.40;;;;;;4992232;28;21019;-72
2021/01/18 12:22:56;;;;;;;2.77;2.40;;;19.60;41.40;;;;;;4990201;28;21000;-71
2021/01/18 12:25:23;;;;;;;2.30;2.17;;;19.60;41.50;;;;;;4993319;28;20490;-70
2021/01/18 12:27:50;;;;;;;4.80;2.40;;;19.50;41.30;;;;;;4989316;28;20472;-72
2021/01/18 12:30:17;;;;;;;5.73;3.00;;;19.60;41.40;;;;;;4990992;28;20507;-70
2021/01/18 12:32:43;;;;;;;2.90;2.63;;;19.60;41.30;;;;;;4982419;28;20488;-70
2021/01/18 12:35:10;;;;;;;1.93;1.83;;;19.60;41.40;;;;;;4981631;28;20487;-71
2021/01/18 12:37:36;;;;;;;4.90;2.90;;;19.60;41.30;;;;;;4981710;28;20503;-71
2021/01/18 12:40:03;;;;;;;6.90;2.83;;;19.60;41.20;;;;;;4991155;28;21077;-71
2021/01/18 12:42:29;;;;;;;3.50;2.57;;;19.60;41.20;;;;;;4992385;28;21456;-71
2021/01/18 12:44:56;;;;;;;3.30;2.83;;;19.60;41.20;;;;;;4992215;28;20857;-71
2021/01/18 12:47:23;;;;;;;2.70;2.50;;;19.70;41.30;;;;;;4988065;28;20547;-71
2021/01/18 12:49:49;;;;;;;4.83;2.43;;;19.60;41.30;;;;;;4992622;28;20497;-71
2021/01/18 12:52:15;;;;;;;2.67;2.57;;;19.60;41.40;;;;;;4993563;28;21545;-71
2021/01/18 12:54:41;;;;;;;3.70;2.37;;;19.60;41.40;;;;;;4991549;28;20496;-71
2021/01/18 12:57:07;;;;;;;2.50;2.40;;;19.60;41.40;;;;;;4969915;28;20498;-71